Current Conditions
Clear
Conditions



Pressure
1023.92 (hPa) - 30.24 (inHG)
Visibility

10.0 (km) - 6.2 (miles)
   Temperature
1  °C
34°F
-4  °C
Dewpoint
70  %
 Humidity
   Wind Speed
5  km/h
3  kts
3  mph
1.3  m/s
   Wind Direction
Calm
Due North
   Airport Data
LGTS
Location Thessaloniki Macedonia International 85 km (52.83 mi)
Metar :LGTS 221950Z VRB03KT CAVOK 01/M04 Q1024 NOSIG
Wed 22nd January 21:50 pm
   Raw Metar Info
Raw METAR is the most common format in the world for the transmission of observational weather data. It is highly standardized through the International Civil Aviation Organization (ICAO), which allows it to be understood throughout most of the world.
   API Info
Data Provided by
https://www.checkwx.com/weather/LGTS
   © Info
CSS/SVG/PHP scripts were developed by weather34.com for use in the weather34 template © 2015-2020

Guide Info provided by Metar-Wikipedia